createdAt,value
2023-04-25T00:00:07.981Z,6.63
2023-04-25T00:01:14.861Z,6.82
2023-04-25T00:02:17.136Z,8.30
2023-04-25T00:03:19.617Z,6.40
2023-04-25T00:04:22.769Z,6.28
2023-04-25T00:05:25.470Z,7.18
2023-04-25T00:06:27.679Z,5.90
2023-04-25T00:07:29.804Z,7.15
2023-04-25T00:08:32.025Z,8.85
2023-04-25T00:09:34.569Z,6.50
2023-04-25T00:10:37.288Z,6.72
2023-04-25T00:11:39.468Z,7.70
2023-04-25T00:12:42.367Z,6.35
2023-04-25T00:13:44.611Z,8.50
2023-04-25T00:14:47.899Z,5.85
2023-04-25T00:15:50.200Z,6.43
2023-04-25T00:16:52.768Z,6.45
2023-04-25T00:17:54.994Z,7.15
2023-04-25T00:18:57.602Z,6.80
2023-04-25T00:19:59.834Z,5.70
2023-04-25T00:21:02.186Z,4.50
2023-04-25T00:22:04.744Z,5.78
2023-04-25T00:23:06.985Z,4.97
2023-04-25T00:24:09.220Z,6.85
2023-04-25T00:25:11.451Z,5.43
2023-04-25T00:26:13.752Z,6.15
2023-04-25T00:27:16.261Z,5.82
2023-04-25T00:28:18.484Z,5.93
2023-04-25T00:29:20.890Z,6.55
2023-04-25T00:30:23.151Z,5.10
2023-04-25T00:31:25.655Z,9.15
2023-04-25T00:32:27.967Z,9.00
2023-04-25T00:33:30.599Z,5.65
2023-04-25T00:34:32.802Z,5.65
2023-04-25T00:35:36.076Z,6.13
2023-04-25T00:36:38.973Z,5.00
2023-04-25T00:37:41.408Z,6.75
2023-04-25T00:38:43.597Z,5.72
2023-04-25T00:39:45.993Z,7.03
2023-04-25T00:40:48.386Z,5.97
2023-04-25T00:41:54.046Z,6.45
2023-04-25T00:42:56.307Z,4.97
2023-04-25T00:43:59.159Z,6.75
2023-04-25T00:45:01.887Z,4.82
2023-04-25T00:46:04.736Z,5.55
2023-04-25T00:47:07.860Z,6.13
2023-04-25T00:48:10.322Z,5.97
2023-04-25T00:49:16.311Z,4.30
2023-04-25T00:50:18.648Z,4.97
2023-04-25T00:51:22.156Z,7.35
2023-04-25T00:52:24.637Z,5.20
2023-04-25T00:53:28.609Z,5.68
2023-04-25T00:54:31.650Z,5.55
2023-04-25T00:55:36.929Z,10.00
2023-04-25T00:56:39.872Z,5.43
2023-04-25T00:57:43.219Z,5.32
2023-04-25T00:58:45.620Z,5.95
2023-04-25T00:59:48.589Z,7.25
2023-04-25T01:00:53.235Z,5.30
2023-04-25T01:01:55.918Z,5.65
2023-04-25T01:02:58.807Z,5.70
2023-04-25T01:04:02.125Z,6.85
2023-04-25T01:05:05.023Z,6.22
2023-04-25T01:06:10.021Z,5.60
2023-04-25T01:07:12.247Z,5.15
2023-04-25T01:08:15.493Z,4.50
2023-04-25T01:09:17.873Z,6.72
2023-04-25T01:10:20.819Z,3.80
2023-04-25T01:11:23.061Z,6.10
2023-04-25T01:12:25.500Z,6.50
2023-04-25T01:13:28.666Z,7.25
2023-04-25T01:14:30.916Z,6.22
2023-04-25T01:15:33.127Z,4.93
2023-04-25T01:16:35.736Z,5.00
2023-04-25T01:17:40.357Z,5.13
2023-04-25T01:18:43.458Z,3.83
2023-04-25T01:19:47.029Z,6.85
2023-04-25T01:20:52.311Z,6.10
2023-04-25T01:21:55.834Z,6.65
2023-04-25T01:22:58.324Z,5.15
2023-04-25T01:24:00.851Z,6.80
2023-04-25T01:25:03.214Z,4.50
2023-04-25T01:26:07.742Z,4.25
2023-04-25T01:27:11.440Z,6.50
2023-04-25T01:28:13.752Z,4.28
2023-04-25T01:29:21.991Z,6.32
2023-04-25T01:30:24.564Z,3.80
2023-04-25T01:31:28.475Z,6.32
2023-04-25T01:32:39.254Z,6.35
2023-04-25T01:33:41.744Z,4.72
2023-04-25T01:34:44.004Z,7.53
2023-04-25T01:35:46.202Z,7.13
2023-04-25T01:36:51.414Z,5.45
2023-04-25T01:37:54.573Z,7.60
2023-04-25T01:38:57.735Z,6.25
2023-04-25T01:39:59.990Z,4.35
2023-04-25T01:41:02.433Z,5.57
2023-04-25T01:42:04.675Z,6.75
2023-04-25T01:43:09.232Z,6.38
2023-04-25T01:44:11.488Z,3.80
2023-04-25T01:45:13.911Z,4.30
2023-04-25T01:46:16.210Z,5.80
2023-04-25T01:47:19.549Z,7.45
2023-04-25T01:48:21.801Z,6.63
2023-04-25T01:49:24.554Z,4.47
2023-04-25T01:50:26.781Z,5.47
2023-04-25T01:51:29.510Z,5.22
2023-04-25T01:52:31.837Z,4.90
2023-04-25T01:53:34.809Z,5.47
2023-04-25T01:54:39.320Z,5.80
2023-04-25T01:55:41.674Z,3.30
2023-04-25T01:56:52.069Z,4.47
2023-04-25T01:57:55.375Z,5.85
2023-04-25T01:59:06.408Z,6.15
2023-04-25T02:02:08.083Z,6.72
2023-04-25T02:03:11.838Z,5.68
2023-04-25T02:04:14.463Z,5.78
2023-04-25T02:05:18.334Z,6.72
2023-04-25T02:06:20.694Z,5.18
2023-04-25T02:07:23.966Z,6.53
2023-04-25T02:08:28.613Z,5.13
2023-04-25T02:09:31.668Z,4.53
2023-04-25T02:10:35.425Z,4.45
2023-04-25T02:11:54.036Z,4.22
2023-04-25T02:13:29.909Z,5.50
2023-04-25T02:15:07.998Z,5.20
2023-04-25T02:16:15.474Z,4.45
2023-04-25T02:17:17.814Z,5.22
2023-04-25T02:18:22.222Z,5.25
2023-04-25T02:19:24.683Z,5.32
2023-04-25T02:20:28.443Z,6.32
2023-04-25T02:21:31.943Z,6.72
2023-04-25T02:22:35.245Z,4.57
2023-04-25T02:23:37.612Z,7.75
2023-04-25T02:24:40.334Z,5.20
2023-04-25T02:25:42.662Z,5.97
2023-04-25T02:26:45.325Z,4.88
2023-04-25T02:27:49.514Z,9.23
2023-04-25T02:28:52.703Z,7.25
2023-04-25T02:29:55.529Z,5.63
2023-04-25T02:30:57.702Z,4.63
2023-04-25T02:32:00.664Z,3.58
2023-04-25T02:33:03.140Z,5.68
2023-04-25T02:34:05.655Z,5.47
2023-04-25T02:35:11.272Z,4.82
2023-04-25T02:36:13.807Z,5.95
2023-04-25T02:37:17.373Z,5.22
2023-04-25T02:38:21.310Z,6.00
2023-04-25T02:39:25.943Z,5.05
2023-04-25T02:40:28.267Z,4.88
2023-04-25T02:41:30.723Z,4.78
2023-04-25T02:42:33.318Z,3.90
2023-04-25T02:43:35.586Z,6.88
2023-04-25T02:44:37.741Z,5.28
2023-04-25T02:45:41.374Z,5.35
2023-04-25T02:46:43.683Z,4.78
2023-04-25T02:47:45.960Z,6.47
2023-04-25T02:48:48.316Z,6.70
2023-04-25T02:49:51.694Z,6.75
2023-04-25T02:50:53.931Z,4.60
2023-04-25T02:51:56.184Z,5.50
2023-04-25T02:52:58.484Z,4.93
2023-04-25T02:54:07.471Z,7.65
2023-04-25T02:55:14.948Z,7.35
2023-04-25T02:56:18.290Z,5.28
2023-04-25T02:57:20.769Z,7.03
2023-04-25T02:58:23.122Z,5.07
2023-04-25T02:59:27.852Z,6.40
2023-04-25T03:00:30.366Z,5.53
2023-04-25T03:01:32.608Z,5.15
2023-04-25T03:02:34.882Z,6.55
2023-04-25T03:03:37.284Z,4.93
2023-04-25T03:04:40.079Z,5.75
2023-04-25T03:05:42.421Z,6.28
2023-04-25T03:06:44.956Z,5.57
2023-04-25T03:07:47.252Z,5.80
2023-04-25T03:08:49.540Z,8.50
2023-04-25T03:09:51.962Z,8.73
2023-04-25T03:10:56.433Z,7.88
2023-04-25T03:11:58.708Z,6.00
2023-04-25T03:13:01.144Z,6.35
2023-04-25T03:14:03.405Z,7.50
2023-04-25T03:15:06.660Z,4.53
2023-04-25T03:16:09.122Z,6.30
2023-04-25T03:17:11.449Z,6.45
2023-04-25T03:18:13.736Z,5.95
2023-04-25T03:19:17.976Z,4.97
2023-04-25T03:20:20.283Z,5.18
2023-04-25T03:21:23.443Z,7.03
2023-04-25T03:22:27.209Z,6.18
2023-04-25T03:23:29.558Z,4.47
2023-04-25T03:24:31.855Z,8.15
2023-04-25T03:25:34.578Z,8.02
2023-04-25T03:26:36.729Z,7.85
2023-04-25T03:27:38.888Z,8.13
2023-04-25T03:28:42.622Z,8.43
2023-04-25T03:29:44.812Z,6.40
2023-04-25T03:30:47.064Z,6.78
2023-04-25T03:31:49.218Z,5.65
2023-04-25T03:32:51.582Z,6.45
2023-04-25T03:33:53.951Z,5.03
2023-04-25T03:34:58.362Z,5.70
2023-04-25T03:36:03.052Z,6.43
2023-04-25T03:37:05.795Z,6.50
2023-04-25T03:38:12.667Z,8.65
2023-04-25T03:39:16.797Z,6.43
2023-04-25T03:40:23.721Z,5.93
2023-04-25T03:41:41.859Z,7.63
2023-04-25T03:42:48.737Z,7.50
2023-04-25T03:43:51.113Z,7.20
2023-04-25T03:44:53.711Z,6.32
2023-04-25T03:45:56.772Z,7.07
2023-04-25T03:46:59.644Z,6.15
2023-04-25T03:48:01.953Z,6.70
2023-04-25T03:49:05.696Z,7.13
2023-04-25T03:50:27.309Z,9.20
2023-04-25T03:51:29.990Z,7.82
2023-04-25T03:52:32.214Z,6.50
2023-04-25T03:53:34.467Z,6.68
2023-04-25T03:55:09.680Z,7.43
2023-04-25T03:56:12.731Z,6.68
2023-04-25T03:57:16.027Z,5.82
2023-04-25T03:58:19.063Z,6.40
2023-04-25T03:59:21.349Z,6.10
2023-04-25T04:00:23.536Z,6.38
2023-04-25T04:01:28.153Z,7.25
2023-04-25T04:02:30.570Z,8.30
2023-04-25T04:03:38.023Z,8.38
2023-04-25T04:04:41.123Z,7.82
2023-04-25T04:05:43.552Z,6.03
2023-04-25T04:06:46.820Z,6.95
2023-04-25T04:07:54.601Z,6.97
2023-04-25T04:08:57.672Z,5.68
2023-04-25T04:10:00.733Z,6.97
2023-04-25T04:11:09.148Z,7.22
2023-04-25T04:12:11.576Z,5.53
2023-04-25T04:13:16.129Z,6.70
2023-04-25T04:14:20.461Z,8.65
2023-04-25T04:15:24.352Z,5.85
2023-04-25T04:16:26.728Z,5.95
2023-04-25T04:17:29.069Z,5.38
2023-04-25T04:18:31.478Z,7.80
2023-04-25T04:19:33.706Z,5.60
2023-04-25T04:20:44.663Z,7.45
2023-04-25T04:21:47.575Z,5.68
2023-04-25T04:22:49.771Z,5.38
2023-04-25T04:23:53.389Z,5.40
2023-04-25T04:24:57.810Z,5.45
2023-04-25T04:26:20.001Z,8.43
2023-04-25T04:27:30.338Z,7.63
2023-04-25T04:28:55.909Z,7.45
2023-04-25T04:30:26.347Z,7.63
2023-04-25T04:31:33.571Z,6.50
2023-04-25T04:32:37.507Z,7.88
2023-04-25T04:33:41.077Z,6.07
2023-04-25T04:34:44.052Z,7.75
2023-04-25T04:35:49.450Z,6.40
2023-04-25T04:36:52.550Z,7.95
2023-04-25T04:37:55.573Z,8.48
2023-04-25T04:38:58.944Z,9.20
2023-04-25T04:40:11.169Z,7.28
2023-04-25T04:41:25.645Z,7.43
2023-04-25T04:42:38.218Z,6.55
2023-04-25T04:43:54.180Z,9.23
2023-04-25T04:45:25.669Z,7.35
2023-04-25T04:46:49.490Z,6.68
2023-04-25T04:48:07.309Z,7.05
2023-04-25T04:49:14.700Z,6.55
2023-04-25T04:50:36.846Z,7.78
2023-04-25T04:51:53.247Z,8.77
2023-04-25T04:53:18.153Z,5.75
2023-04-25T04:54:44.830Z,6.25
2023-04-25T04:56:07.374Z,9.13
2023-04-25T04:57:29.169Z,11.90
2023-04-25T04:58:49.999Z,9.48
2023-04-25T05:00:19.104Z,9.30
2023-04-25T05:01:36.653Z,7.10
2023-04-25T05:03:06.583Z,10.02
2023-04-25T05:04:24.438Z,8.60
2023-04-25T05:05:46.759Z,8.13
2023-04-25T05:07:16.130Z,7.97
2023-04-25T05:08:38.575Z,9.23
2023-04-25T05:10:00.068Z,6.80
2023-04-25T05:11:21.891Z,9.20
2023-04-25T05:12:41.267Z,6.70
2023-04-25T05:14:06.375Z,7.90
2023-04-25T05:15:19.715Z,6.30
2023-04-25T05:16:28.100Z,9.60
2023-04-25T05:18:05.881Z,8.05
2023-04-25T05:19:24.458Z,9.27
2023-04-25T05:20:45.152Z,8.13
2023-04-25T05:22:19.714Z,8.43
2023-04-25T05:23:43.833Z,8.55
2023-04-25T05:25:06.484Z,7.97
2023-04-25T05:26:34.925Z,7.30
2023-04-25T05:27:48.182Z,9.98
2023-04-25T05:29:08.890Z,12.20
2023-04-25T05:30:29.672Z,7.32
2023-04-25T05:31:46.289Z,7.55
2023-04-25T05:32:52.346Z,8.75
2023-04-25T05:33:54.650Z,8.00
2023-04-25T05:35:00.163Z,7.18
2023-04-25T05:36:07.370Z,9.73
2023-04-25T05:37:09.686Z,8.63
2023-04-25T05:38:22.135Z,9.13
2023-04-25T05:39:42.859Z,7.82
2023-04-25T05:41:02.122Z,8.02
2023-04-25T05:42:19.732Z,8.35
2023-04-25T05:43:34.032Z,6.35
2023-04-25T05:44:56.181Z,10.13
2023-04-25T05:46:18.652Z,7.78
2023-04-25T05:47:47.553Z,5.68
2023-04-25T05:49:12.299Z,6.05
2023-04-25T05:50:37.162Z,7.43
2023-04-25T05:51:57.939Z,6.05
2023-04-25T05:53:10.210Z,8.95
2023-04-25T05:54:15.948Z,6.93
2023-04-25T05:55:18.258Z,7.35
2023-04-25T05:56:20.787Z,6.15
2023-04-25T05:57:27.136Z,8.43
2023-04-25T05:58:31.777Z,5.57
2023-04-25T05:59:35.347Z,4.93
2023-04-25T06:00:37.714Z,6.80
2023-04-25T06:01:39.999Z,4.65
2023-04-25T06:02:42.811Z,7.32
2023-04-25T06:03:47.339Z,4.68
2023-04-25T06:04:53.307Z,4.40
2023-04-25T06:05:55.711Z,4.30
2023-04-25T06:06:57.926Z,5.07
2023-04-25T06:08:00.132Z,4.68
2023-04-25T06:09:02.361Z,3.90
2023-04-25T06:10:07.993Z,4.65
2023-04-25T06:11:10.186Z,5.28
2023-04-25T06:12:12.439Z,4.85
2023-04-25T06:13:16.331Z,4.85
2023-04-25T06:14:19.565Z,4.38
2023-04-25T06:15:28.481Z,4.95
2023-04-25T06:16:31.202Z,6.50
2023-04-25T06:17:34.101Z,5.05
2023-04-25T06:18:37.182Z,4.53
2023-04-25T06:19:39.438Z,6.85
2023-04-25T06:20:41.682Z,5.18
2023-04-25T06:21:45.442Z,4.65
2023-04-25T06:22:47.887Z,4.00
2023-04-25T06:23:50.698Z,4.30
2023-04-25T06:24:59.870Z,4.80
2023-04-25T06:26:02.066Z,5.03
2023-04-25T06:27:06.075Z,4.50
2023-04-25T06:28:08.407Z,5.18
2023-04-25T06:29:11.155Z,6.00
2023-04-25T06:30:13.523Z,5.22
2023-04-25T06:31:16.138Z,6.82
2023-04-25T06:32:19.515Z,5.15
2023-04-25T06:33:23.036Z,7.78
2023-04-25T06:34:25.777Z,8.18
2023-04-25T06:35:28.219Z,4.97
2023-04-25T06:36:31.309Z,6.57
2023-04-25T06:37:39.698Z,6.75
2023-04-25T06:38:41.922Z,4.72
2023-04-25T06:39:44.132Z,8.38
2023-04-25T06:40:46.944Z,6.20
2023-04-25T06:41:49.155Z,4.60
2023-04-25T06:43:11.569Z,8.82
2023-04-25T06:44:39.978Z,6.38
2023-04-25T06:45:46.394Z,7.20
2023-04-25T06:46:49.950Z,7.80
2023-04-25T06:47:52.288Z,7.13
2023-04-25T06:48:54.717Z,7.88
2023-04-25T06:49:57.125Z,8.68
2023-04-25T06:50:59.743Z,7.72
2023-04-25T06:52:02.498Z,5.63
2023-04-25T06:53:04.751Z,6.53
2023-04-25T06:54:07.195Z,7.60
2023-04-25T06:55:16.562Z,6.43
2023-04-25T06:56:39.596Z,8.98
2023-04-25T06:57:47.225Z,6.72
2023-04-25T06:59:07.835Z,8.55
2023-04-25T07:00:13.394Z,9.85
2023-04-25T07:01:15.820Z,11.25
2023-04-25T07:02:18.440Z,8.10
2023-04-25T07:03:21.441Z,5.47
2023-04-25T07:04:24.622Z,6.63
2023-04-25T07:05:31.023Z,10.57
2023-04-25T07:06:33.713Z,8.73
2023-04-25T07:07:36.503Z,6.45
2023-04-25T07:08:38.806Z,6.40
2023-04-25T07:09:40.977Z,10.02
2023-04-25T07:10:43.513Z,6.88
2023-04-25T07:11:46.249Z,8.73
2023-04-25T07:12:48.484Z,7.57
2023-04-25T07:13:50.712Z,7.18
2023-04-25T07:14:52.970Z,11.38
2023-04-25T07:15:57.232Z,6.10
2023-04-25T07:16:59.796Z,5.75
2023-04-25T07:18:03.532Z,5.97
2023-04-25T07:19:05.807Z,9.10
2023-04-25T07:20:10.037Z,7.03
2023-04-25T07:21:12.589Z,4.97
2023-04-25T07:22:16.580Z,7.60
2023-04-25T07:23:19.208Z,9.90
2023-04-25T07:24:22.164Z,5.78
2023-04-25T07:25:25.851Z,8.32
2023-04-25T07:26:28.197Z,10.07
2023-04-25T07:27:50.049Z,8.20
2023-04-25T07:28:55.608Z,6.60
2023-04-25T07:29:58.358Z,7.50
2023-04-25T07:31:00.595Z,13.57
2023-04-25T07:32:02.990Z,7.80
2023-04-25T07:33:05.411Z,6.65
2023-04-25T07:34:08.131Z,6.28
2023-04-25T07:35:11.701Z,6.20
2023-04-25T07:36:13.929Z,8.15
2023-04-25T07:37:16.500Z,9.48
2023-04-25T07:38:33.934Z,9.80
2023-04-25T07:39:38.019Z,12.45
2023-04-25T07:40:40.270Z,9.15
2023-04-25T07:41:44.489Z,11.10
2023-04-25T07:42:52.731Z,14.73
2023-04-25T07:44:04.723Z,8.60
2023-04-25T07:45:10.220Z,9.05
2023-04-25T07:46:13.599Z,8.50
2023-04-25T07:47:16.112Z,9.70
2023-04-25T07:48:22.033Z,8.23
2023-04-25T07:49:26.901Z,6.57
2023-04-25T07:50:29.530Z,9.00
2023-04-25T07:51:32.494Z,8.90
2023-04-25T07:52:40.236Z,8.27
2023-04-25T07:54:02.738Z,7.25
2023-04-25T07:55:05.601Z,8.68
2023-04-25T07:56:18.176Z,7.55
2023-04-25T07:57:25.188Z,8.65
2023-04-25T07:58:28.726Z,8.43
2023-04-25T07:59:35.002Z,8.75
2023-04-25T08:00:39.023Z,8.75
2023-04-25T08:02:01.950Z,7.80
2023-04-25T08:03:05.065Z,6.65
2023-04-25T08:04:07.932Z,6.20
2023-04-25T08:05:25.056Z,7.18
2023-04-25T08:06:37.103Z,6.07
2023-04-25T08:07:44.564Z,8.88
2023-04-25T08:08:47.307Z,9.15
2023-04-25T08:09:53.421Z,8.25
2023-04-25T08:11:00.836Z,10.07
2023-04-25T08:12:04.028Z,10.45
2023-04-25T08:13:08.573Z,11.50
2023-04-25T08:14:13.052Z,7.65
2023-04-25T08:15:16.444Z,9.43
2023-04-25T08:16:19.242Z,8.95
2023-04-25T08:17:22.425Z,9.07
2023-04-25T08:18:25.833Z,10.43
2023-04-25T08:19:28.560Z,8.63
2023-04-25T08:20:31.339Z,9.60
2023-04-25T08:21:35.866Z,10.88
2023-04-25T08:22:41.763Z,12.30
2023-04-25T08:24:13.216Z,10.20
2023-04-25T08:25:17.125Z,9.95
2023-04-25T08:26:19.417Z,10.93
2023-04-25T08:27:25.953Z,10.05
2023-04-25T08:28:28.203Z,12.50
2023-04-25T08:29:31.481Z,9.13
2023-04-25T08:30:33.872Z,8.43
2023-04-25T08:31:38.147Z,8.85
2023-04-25T08:32:41.321Z,8.73
2023-04-25T08:33:56.813Z,9.13
2023-04-25T08:35:03.781Z,9.48
2023-04-25T08:36:06.618Z,9.02
2023-04-25T08:37:10.697Z,11.13
2023-04-25T08:38:17.752Z,11.23
2023-04-25T08:39:20.021Z,9.80
2023-04-25T08:40:44.485Z,10.45
2023-04-25T08:41:53.574Z,7.38
2023-04-25T08:42:58.185Z,8.07
2023-04-25T08:44:02.027Z,8.23
2023-04-25T08:45:07.150Z,9.02
2023-04-25T08:46:13.897Z,11.57
2023-04-25T08:48:35.731Z,9.30
2023-04-25T08:49:44.049Z,9.18
2023-04-25T08:50:53.957Z,8.57
2023-04-25T08:52:00.456Z,10.75
2023-04-25T08:53:05.434Z,11.32
2023-04-25T08:55:18.396Z,9.70
2023-04-25T08:56:23.153Z,10.27
2023-04-25T08:57:26.149Z,7.72
2023-04-25T08:58:31.573Z,9.45
2023-04-25T08:59:33.932Z,8.85
2023-04-25T09:00:37.370Z,9.68
2023-04-25T09:01:39.915Z,9.15
2023-04-25T09:02:43.803Z,8.73
2023-04-25T09:03:48.168Z,6.53
2023-04-25T09:04:50.714Z,9.13
2023-04-25T09:05:53.730Z,5.32
2023-04-25T09:06:57.246Z,7.03
2023-04-25T09:07:59.654Z,9.55
2023-04-25T09:09:06.947Z,4.72
2023-04-25T09:10:09.790Z,6.75
2023-04-25T09:11:14.072Z,4.68
2023-04-25T09:12:16.577Z,4.32
2023-04-25T09:13:27.703Z,3.45
2023-04-25T09:15:09.868Z,3.85
2023-04-25T09:16:58.077Z,11.63
2023-04-25T09:18:13.228Z,8.27
2023-04-25T09:19:40.217Z,7.68
2023-04-25T09:21:57.989Z,3.70
2023-04-25T09:23:06.008Z,5.25
2023-04-25T09:24:10.293Z,5.90
2023-04-25T09:25:15.546Z,4.93
2023-04-25T09:26:21.519Z,6.57
2023-04-25T09:27:26.027Z,6.18
2023-04-25T09:28:36.051Z,5.97
2023-04-25T09:29:40.556Z,7.20
2023-04-25T09:30:43.396Z,6.65
2023-04-25T09:31:53.489Z,7.28
2023-04-25T09:32:59.082Z,7.80
2023-04-25T09:34:02.388Z,9.00
2023-04-25T09:35:11.361Z,8.20
2023-04-25T09:36:14.261Z,7.15
2023-04-25T09:37:31.910Z,9.63
2023-04-25T09:39:17.166Z,10.18
2023-04-25T09:40:25.877Z,13.77
2023-04-25T09:41:38.820Z,10.95
2023-04-25T09:42:42.669Z,8.20
2023-04-25T09:43:47.732Z,9.75
2023-04-25T09:44:53.023Z,11.30
2023-04-25T09:45:59.849Z,13.18
2023-04-25T09:47:03.380Z,7.05
2023-04-25T09:48:07.808Z,8.07
2023-04-25T09:49:15.966Z,8.10
2023-04-25T09:50:35.706Z,9.70
2023-04-25T09:51:55.229Z,8.50
2023-04-25T09:53:06.350Z,10.55
2023-04-25T09:54:26.155Z,8.68
2023-04-25T09:56:41.459Z,8.13
2023-04-25T09:57:49.736Z,10.05
2023-04-25T09:58:55.833Z,11.43
2023-04-25T09:59:59.478Z,8.45
2023-04-25T10:01:09.753Z,11.27
2023-04-25T10:02:24.511Z,10.13
2023-04-25T10:03:34.056Z,11.48
2023-04-25T10:04:56.695Z,12.05
2023-04-25T10:06:27.719Z,12.98
2023-04-25T10:07:32.445Z,13.27
2023-04-25T10:08:38.462Z,13.27
2023-04-25T10:09:41.648Z,13.50
2023-04-25T10:10:44.500Z,15.07
2023-04-25T10:11:49.029Z,15.25
2023-04-25T10:12:51.211Z,15.00
2023-04-25T10:13:53.779Z,20.58
2023-04-25T10:14:56.261Z,22.13
2023-04-25T10:16:00.283Z,18.38
2023-04-25T10:17:03.023Z,20.55
2023-04-25T10:18:07.356Z,17.10
2023-04-25T10:19:11.254Z,13.95
2023-04-25T10:20:13.992Z,14.48
2023-04-25T10:21:17.270Z,15.95
2023-04-25T10:22:32.001Z,15.70
2023-04-25T10:23:35.701Z,17.70
2023-04-25T10:24:39.405Z,18.77
2023-04-25T10:25:43.200Z,17.40
2023-04-25T10:26:45.536Z,19.77
2023-04-25T10:27:47.726Z,19.48
2023-04-25T10:28:58.140Z,19.08
2023-04-25T10:30:05.898Z,17.13
2023-04-25T10:31:09.226Z,20.98
2023-04-25T10:32:11.608Z,17.35
2023-04-25T10:33:19.618Z,17.23
2023-04-25T10:34:26.929Z,17.15
2023-04-25T10:35:34.340Z,18.77
2023-04-25T10:36:38.290Z,23.13
2023-04-25T10:38:05.645Z,18.48
2023-04-25T10:39:09.818Z,13.63
2023-04-25T10:40:12.582Z,19.10
2023-04-25T10:41:15.320Z,15.38
2023-04-25T10:42:18.495Z,16.30
2023-04-25T10:43:32.810Z,17.73
2023-04-25T10:44:35.895Z,16.83
2023-04-25T10:45:53.690Z,17.55
2023-04-25T10:46:57.793Z,22.23
2023-04-25T10:48:01.924Z,17.92
2023-04-25T10:49:04.695Z,20.40
2023-04-25T10:50:09.164Z,19.50
2023-04-25T10:51:12.751Z,23.27
2023-04-25T10:52:17.832Z,20.35
2023-04-25T10:53:20.016Z,15.63
2023-04-25T10:54:24.045Z,22.15
2023-04-25T10:55:26.379Z,14.48
2023-04-25T10:56:32.945Z,20.30
2023-04-25T10:57:42.970Z,16.88
2023-04-25T10:58:46.434Z,18.77
2023-04-25T10:59:48.789Z,18.38
2023-04-25T11:01:57.009Z,18.08
2023-04-25T11:03:03.255Z,15.40
2023-04-25T11:04:06.588Z,17.92
2023-04-25T11:05:10.466Z,19.75
2023-04-25T11:06:24.387Z,19.02
2023-04-25T11:07:48.073Z,21.83
2023-04-25T11:08:55.297Z,18.85
2023-04-25T11:09:57.713Z,19.23
2023-04-25T11:11:00.117Z,20.10
2023-04-25T11:12:02.338Z,22.38
2023-04-25T11:13:04.607Z,17.58
2023-04-25T11:14:07.314Z,22.63
2023-04-25T11:15:09.861Z,20.13
2023-04-25T11:16:12.940Z,19.15
2023-04-25T11:17:15.706Z,17.40
2023-04-25T11:18:19.181Z,16.35
2023-04-25T11:19:21.634Z,20.27
2023-04-25T11:20:26.879Z,14.75
2023-04-25T11:21:29.954Z,17.85
2023-04-25T11:22:32.339Z,17.70
2023-04-25T11:23:34.511Z,18.55
2023-04-25T11:24:37.527Z,16.05
2023-04-25T11:25:39.869Z,16.65
2023-04-25T11:26:48.658Z,16.85
2023-04-25T11:27:52.388Z,17.58
2023-04-25T11:29:00.248Z,15.00
2023-04-25T11:30:16.716Z,17.42
2023-04-25T11:31:22.872Z,15.18
2023-04-25T11:32:27.657Z,13.55
2023-04-25T11:33:30.042Z,13.13
2023-04-25T11:34:36.386Z,13.70
2023-04-25T11:35:41.690Z,15.95
2023-04-25T11:36:43.963Z,17.38
2023-04-25T11:37:46.299Z,12.05
2023-04-25T11:38:48.581Z,11.27
2023-04-25T11:39:50.849Z,14.35
2023-04-25T11:40:53.994Z,12.85
2023-04-25T11:41:56.512Z,12.20
2023-04-25T11:43:01.559Z,13.40
2023-04-25T11:44:04.675Z,12.15
2023-04-25T11:45:07.788Z,13.65
2023-04-25T11:46:10.114Z,15.40
2023-04-25T11:47:12.383Z,11.40
2023-04-25T11:48:15.228Z,14.65
2023-04-25T11:49:20.526Z,12.70
2023-04-25T11:50:22.835Z,15.45
2023-04-25T11:51:25.076Z,13.30
2023-04-25T11:52:44.418Z,13.82
2023-04-25T11:53:47.119Z,13.40
2023-04-25T11:54:49.309Z,12.75
2023-04-25T11:55:52.076Z,14.27
2023-04-25T11:56:54.582Z,14.57
2023-04-25T11:58:00.212Z,14.00
2023-04-25T11:59:05.366Z,13.00
2023-04-25T12:00:20.151Z,11.75
2023-04-25T12:01:35.539Z,18.63
2023-04-25T12:02:41.187Z,15.38
2023-04-25T12:03:47.281Z,17.17
2023-04-25T12:04:50.074Z,15.93
2023-04-25T12:05:52.761Z,17.02
2023-04-25T12:06:56.444Z,14.88
2023-04-25T12:07:58.871Z,14.35
2023-04-25T12:09:05.278Z,14.82
2023-04-25T12:10:11.599Z,14.05
2023-04-25T12:11:22.903Z,13.75
2023-04-25T12:12:35.406Z,15.80
2023-04-25T12:14:39.507Z,14.10
2023-04-25T12:15:41.825Z,13.70
2023-04-25T12:16:46.316Z,13.18
2023-04-25T12:17:50.799Z,13.77
2023-04-25T12:18:54.423Z,13.15
2023-04-25T12:19:56.653Z,11.80
2023-04-25T12:20:59.272Z,14.23
2023-04-25T12:22:04.320Z,9.60
2023-04-25T12:23:12.468Z,9.82
2023-04-25T12:24:23.566Z,11.80
2023-04-25T12:25:39.750Z,11.55
2023-04-25T12:27:00.054Z,14.98
2023-04-25T12:28:12.812Z,11.82
2023-04-25T12:29:19.234Z,13.75
2023-04-25T12:30:21.463Z,13.25
2023-04-25T12:31:23.695Z,12.68
2023-04-25T12:32:27.231Z,10.70
2023-04-25T12:33:31.292Z,12.75
2023-04-25T12:34:35.979Z,12.88
2023-04-25T12:35:38.161Z,11.65
2023-04-25T12:36:40.867Z,14.18
2023-04-25T12:37:42.986Z,14.68
2023-04-25T12:38:45.275Z,16.45
2023-04-25T12:39:47.490Z,15.77
2023-04-25T12:40:49.702Z,14.15
2023-04-25T12:41:55.388Z,11.15
2023-04-25T12:42:58.315Z,10.60
2023-04-25T12:44:00.466Z,12.10
2023-04-25T12:45:02.640Z,10.68
2023-04-25T12:46:06.051Z,12.38
2023-04-25T12:47:08.596Z,12.93
2023-04-25T12:48:11.186Z,12.50
2023-04-25T12:49:18.554Z,14.95
2023-04-25T12:50:21.953Z,12.65
2023-04-25T12:51:25.999Z,11.85
2023-04-25T12:52:28.381Z,13.77
2023-04-25T12:53:30.786Z,11.10
2023-04-25T12:54:32.985Z,13.48
2023-04-25T12:55:35.187Z,12.95
2023-04-25T12:56:37.639Z,14.52
2023-04-25T12:57:40.164Z,11.68
2023-04-25T12:58:45.097Z,11.73
2023-04-25T12:59:47.366Z,10.35
2023-04-25T13:00:49.883Z,12.70
2023-04-25T13:01:52.300Z,12.90
2023-04-25T13:02:54.838Z,13.10
2023-04-25T13:03:57.215Z,13.07
2023-04-25T13:04:59.628Z,12.55
2023-04-25T13:06:02.120Z,12.73
2023-04-25T13:07:04.489Z,13.15
2023-04-25T13:08:06.668Z,12.52
2023-04-25T13:09:09.468Z,10.52
2023-04-25T13:10:12.388Z,11.60
2023-04-25T13:11:15.838Z,14.00
2023-04-25T13:12:18.115Z,13.55
2023-04-25T13:13:21.178Z,12.80
2023-04-25T13:14:23.586Z,10.88
2023-04-25T13:15:25.887Z,11.18
2023-04-25T13:16:28.236Z,10.52
2023-04-25T13:17:31.011Z,13.68
2023-04-25T13:18:33.309Z,14.15
2023-04-25T13:19:35.575Z,14.18
2023-04-25T13:20:37.821Z,12.38
2023-04-25T13:21:40.128Z,11.38
2023-04-25T13:22:43.877Z,12.27
2023-04-25T13:23:47.788Z,11.45
2023-04-25T13:24:49.982Z,11.18
2023-04-25T13:25:52.382Z,16.65
2023-04-25T13:26:54.611Z,15.55
2023-04-25T13:27:56.863Z,15.50
2023-04-25T13:28:59.095Z,16.48
2023-04-25T13:30:08.199Z,14.90
2023-04-25T13:31:10.426Z,12.38
2023-04-25T13:32:12.641Z,13.77
2023-04-25T13:33:16.078Z,13.43
2023-04-25T13:34:18.221Z,13.50
2023-04-25T13:35:20.838Z,15.05
2023-04-25T13:36:22.999Z,14.00
2023-04-25T13:37:25.799Z,14.80
2023-04-25T13:38:27.924Z,13.77
2023-04-25T13:39:30.165Z,16.38
2023-04-25T13:40:33.135Z,15.82
2023-04-25T13:41:35.653Z,13.90
2023-04-25T13:42:39.257Z,16.33
2023-04-25T13:43:41.498Z,15.07
2023-04-25T13:44:43.643Z,13.18
2023-04-25T13:45:45.903Z,14.25
2023-04-25T13:46:48.209Z,12.65
2023-04-25T13:47:50.938Z,14.95
2023-04-25T13:48:59.756Z,14.02
2023-04-25T13:50:08.891Z,14.27
2023-04-25T13:51:12.037Z,14.60
2023-04-25T13:52:14.521Z,12.98
2023-04-25T13:53:16.785Z,14.75
2023-04-25T13:54:19.129Z,14.15
2023-04-25T13:55:21.389Z,12.73
2023-04-25T13:56:24.329Z,14.85
2023-04-25T13:57:26.731Z,11.25
2023-04-25T13:58:28.933Z,11.05
2023-04-25T13:59:31.363Z,11.43
2023-04-25T14:00:34.841Z,13.77
2023-04-25T14:01:37.158Z,13.30
2023-04-25T14:02:39.712Z,17.23
2023-04-25T14:03:42.518Z,13.48
2023-04-25T14:04:44.922Z,11.85
2023-04-25T14:05:47.178Z,13.35
2023-04-25T14:06:49.412Z,13.18
2023-04-25T14:07:52.107Z,12.52
2023-04-25T14:08:55.322Z,12.65
2023-04-25T14:10:00.747Z,13.73
2023-04-25T14:11:02.983Z,14.05
2023-04-25T14:12:05.257Z,14.48
2023-04-25T14:13:09.514Z,15.50
2023-04-25T14:14:14.458Z,15.15
2023-04-25T14:15:16.710Z,12.52
2023-04-25T14:16:18.914Z,11.23
2023-04-25T14:17:21.288Z,12.10
2023-04-25T14:18:23.565Z,11.50
2023-04-25T14:19:25.974Z,11.20
2023-04-25T14:20:28.618Z,13.35
2023-04-25T14:21:33.156Z,10.20
2023-04-25T14:22:35.577Z,13.32
2023-04-25T14:23:37.744Z,14.73
2023-04-25T14:24:40.003Z,15.90
2023-04-25T14:25:42.992Z,13.73
2023-04-25T14:26:45.565Z,15.80
2023-04-25T14:27:50.700Z,12.60
2023-04-25T14:28:53.265Z,14.35
2023-04-25T14:29:55.543Z,11.05
2023-04-25T14:30:57.772Z,15.30
2023-04-25T14:32:00.376Z,12.43
2023-04-25T14:33:02.569Z,12.43
2023-04-25T14:34:04.739Z,10.90
2023-04-25T14:35:08.309Z,10.35